sensor_id;sensor_type;location;lat;lon;timestamp;P1;durP1;ratioP1;P2;durP2;ratioP2
10009;SDS011;5044;48.652;9.250;2023-01-01T00:00:36;35.70;;;21.58;;
10009;SDS011;5044;48.652;9.250;2023-01-01T00:03:06;38.28;;;24.38;;
10009;SDS011;5044;48.652;9.250;2023-01-01T00:05:38;34.90;;;22.85;;
10009;SDS011;5044;48.652;9.250;2023-01-01T00:08:06;42.45;;;25.30;;
10009;SDS011;5044;48.652;9.250;2023-01-01T00:10:33;42.00;;;24.90;;
10009;SDS011;5044;48.652;9.250;2023-01-01T00:12:59;40.55;;;25.33;;
10009;SDS011;5044;48.652;9.250;2023-01-01T00:15:27;50.60;;;29.17;;
10009;SDS011;5044;48.652;9.250;2023-01-01T00:17:57;47.65;;;27.02;;
10009;SDS011;5044;48.652;9.250;2023-01-01T00:20:25;49.40;;;28.73;;
10009;SDS011;5044;48.652;9.250;2023-01-01T00:22:55;53.38;;;29.17;;
10009;SDS011;5044;48.652;9.250;2023-01-01T00:25:23;51.72;;;29.95;;
10009;SDS011;5044;48.652;9.250;2023-01-01T00:27:51;46.08;;;27.70;;
10009;SDS011;5044;48.652;9.250;2023-01-01T00:30:19;44.17;;;23.73;;
10009;SDS011;5044;48.652;9.250;2023-01-01T00:32:50;42.97;;;25.02;;
10009;SDS011;5044;48.652;9.250;2023-01-01T00:35:17;30.02;;;19.23;;
10009;SDS011;5044;48.652;9.250;2023-01-01T00:37:46;35.15;;;18.60;;
10009;SDS011;5044;48.652;9.250;2023-01-01T00:40:18;25.60;;;17.17;;
10009;SDS011;5044;48.652;9.250;2023-01-01T00:42:50;21.20;;;14.77;;
10009;SDS011;5044;48.652;9.250;2023-01-01T00:45:17;22.02;;;11.90;;
10009;SDS011;5044;48.652;9.250;2023-01-01T00:47:45;23.20;;;11.88;;
10009;SDS011;5044;48.652;9.250;2023-01-01T00:50:12;18.85;;;12.27;;
10009;SDS011;5044;48.652;9.250;2023-01-01T00:52:40;19.27;;;11.07;;
10009;SDS011;5044;48.652;9.250;2023-01-01T00:55:08;19.08;;;11.73;;
10009;SDS011;5044;48.652;9.250;2023-01-01T00:57:44;18.20;;;11.98;;
10009;SDS011;5044;48.652;9.250;2023-01-01T01:00:15;22.13;;;12.23;;
10009;SDS011;5044;48.652;9.250;2023-01-01T01:02:50;20.80;;;12.57;;
10009;SDS011;5044;48.652;9.250;2023-01-01T01:05:20;24.42;;;12.00;;
10009;SDS011;5044;48.652;9.250;2023-01-01T01:07:48;22.38;;;11.75;;
10009;SDS011;5044;48.652;9.250;2023-01-01T01:10:16;18.50;;;11.80;;
10009;SDS011;5044;48.652;9.250;2023-01-01T01:12:54;17.27;;;10.70;;
10009;SDS011;5044;48.652;9.250;2023-01-01T01:15:21;17.40;;;11.02;;
10009;SDS011;5044;48.652;9.250;2023-01-01T01:17:50;17.15;;;10.02;;
10009;SDS011;5044;48.652;9.250;2023-01-01T01:20:17;14.48;;;9.57;;
10009;SDS011;5044;48.652;9.250;2023-01-01T01:22:46;13.52;;;9.63;;
10009;SDS011;5044;48.652;9.250;2023-01-01T01:25:17;13.90;;;9.45;;
10009;SDS011;5044;48.652;9.250;2023-01-01T01:27:45;12.32;;;8.27;;
10009;SDS011;5044;48.652;9.250;2023-01-01T01:30:21;13.55;;;9.30;;
10009;SDS011;5044;48.652;9.250;2023-01-01T01:32:50;15.45;;;8.27;;
10009;SDS011;5044;48.652;9.250;2023-01-01T01:35:19;15.90;;;8.00;;
10009;SDS011;5044;48.652;9.250;2023-01-01T01:37:50;20.30;;;9.45;;
10009;SDS011;5044;48.652;9.250;2023-01-01T01:40:19;11.93;;;7.97;;
10009;SDS011;5044;48.652;9.250;2023-01-01T01:42:51;14.02;;;7.85;;
10009;SDS011;5044;48.652;9.250;2023-01-01T01:45:24;11.35;;;7.65;;
10009;SDS011;5044;48.652;9.250;2023-01-01T01:47:53;14.93;;;7.75;;
10009;SDS011;5044;48.652;9.250;2023-01-01T01:50:37;13.30;;;7.18;;
10009;SDS011;5044;48.652;9.250;2023-01-01T01:53:09;11.95;;;7.20;;
10009;SDS011;5044;48.652;9.250;2023-01-01T01:55:42;13.60;;;7.75;;
10009;SDS011;5044;48.652;9.250;2023-01-01T01:58:13;11.60;;;7.95;;
10009;SDS011;5044;48.652;9.250;2023-01-01T02:00:45;11.25;;;6.85;;
10009;SDS011;5044;48.652;9.250;2023-01-01T02:03:16;8.45;;;5.43;;
10009;SDS011;5044;48.652;9.250;2023-01-01T02:05:46;15.52;;;7.60;;
10009;SDS011;5044;48.652;9.250;2023-01-01T02:08:16;12.95;;;7.70;;
10009;SDS011;5044;48.652;9.250;2023-01-01T02:10:48;15.15;;;7.53;;
10009;SDS011;5044;48.652;9.250;2023-01-01T02:13:15;11.77;;;6.90;;
10009;SDS011;5044;48.652;9.250;2023-01-01T02:15:50;16.27;;;7.80;;
10009;SDS011;5044;48.652;9.250;2023-01-01T02:18:23;10.65;;;6.97;;
10009;SDS011;5044;48.652;9.250;2023-01-01T02:20:57;12.50;;;7.75;;
10009;SDS011;5044;48.652;9.250;2023-01-01T02:23:40;11.48;;;6.75;;
10009;SDS011;5044;48.652;9.250;2023-01-01T02:26:30;13.35;;;7.25;;
10009;SDS011;5044;48.652;9.250;2023-01-01T02:29:12;13.43;;;7.88;;
10009;SDS011;5044;48.652;9.250;2023-01-01T02:31:49;12.05;;;7.45;;
10009;SDS011;5044;48.652;9.250;2023-01-01T02:34:23;9.95;;;6.55;;
10009;SDS011;5044;48.652;9.250;2023-01-01T02:36:54;11.50;;;6.57;;
10009;SDS011;5044;48.652;9.250;2023-01-01T02:39:26;10.45;;;7.15;;
10009;SDS011;5044;48.652;9.250;2023-01-01T02:41:59;12.85;;;6.57;;
10009;SDS011;5044;48.652;9.250;2023-01-01T02:44:39;13.68;;;5.97;;
10009;SDS011;5044;48.652;9.250;2023-01-01T02:49:45;8.63;;;5.20;;
10009;SDS011;5044;48.652;9.250;2023-01-01T02:52:20;8.32;;;5.50;;
10009;SDS011;5044;48.652;9.250;2023-01-01T02:55:03;9.77;;;5.43;;
10009;SDS011;5044;48.652;9.250;2023-01-01T02:57:44;7.35;;;4.43;;
10009;SDS011;5044;48.652;9.250;2023-01-01T03:00:33;9.23;;;4.78;;
10009;SDS011;5044;48.652;9.250;2023-01-01T03:03:05;12.20;;;5.55;;
10009;SDS011;5044;48.652;9.250;2023-01-01T03:05:45;8.70;;;4.60;;
10009;SDS011;5044;48.652;9.250;2023-01-01T03:08:38;7.93;;;4.35;;
10009;SDS011;5044;48.652;9.250;2023-01-01T03:11:13;6.93;;;4.25;;
10009;SDS011;5044;48.652;9.250;2023-01-01T03:13:46;7.38;;;4.13;;
10009;SDS011;5044;48.652;9.250;2023-01-01T03:16:20;7.75;;;4.88;;
10009;SDS011;5044;48.652;9.250;2023-01-01T03:18:57;7.70;;;4.10;;
10009;SDS011;5044;48.652;9.250;2023-01-01T03:21:40;7.53;;;3.97;;
10009;SDS011;5044;48.652;9.250;2023-01-01T03:24:15;9.23;;;4.20;;
10009;SDS011;5044;48.652;9.250;2023-01-01T03:26:50;9.27;;;5.10;;
10009;SDS011;5044;48.652;9.250;2023-01-01T03:29:22;6.85;;;4.10;;
10009;SDS011;5044;48.652;9.250;2023-01-01T03:31:55;7.65;;;4.10;;
10009;SDS011;5044;48.652;9.250;2023-01-01T03:34:26;6.88;;;3.80;;
10009;SDS011;5044;48.652;9.250;2023-01-01T03:37:02;7.30;;;4.85;;
10009;SDS011;5044;48.652;9.250;2023-01-01T03:39:37;10.60;;;5.70;;
10009;SDS011;5044;48.652;9.250;2023-01-01T03:42:16;9.18;;;5.53;;
10009;SDS011;5044;48.652;9.250;2023-01-01T03:45:05;9.30;;;5.88;;
10009;SDS011;5044;48.652;9.250;2023-01-01T03:47:38;7.75;;;5.22;;
10009;SDS011;5044;48.652;9.250;2023-01-01T03:50:05;9.02;;;5.72;;
10009;SDS011;5044;48.652;9.250;2023-01-01T03:52:40;8.63;;;4.75;;
10009;SDS011;5044;48.652;9.250;2023-01-01T03:55:18;7.70;;;4.63;;
10009;SDS011;5044;48.652;9.250;2023-01-01T03:57:54;8.43;;;4.93;;
10009;SDS011;5044;48.652;9.250;2023-01-01T04:00:28;10.18;;;4.35;;
10009;SDS011;5044;48.652;9.250;2023-01-01T04:03:11;7.53;;;4.55;;
10009;SDS011;5044;48.652;9.250;2023-01-01T04:05:44;8.82;;;4.10;;
10009;SDS011;5044;48.652;9.250;2023-01-01T04:08:11;7.43;;;3.75;;
10009;SDS011;5044;48.652;9.250;2023-01-01T04:10:41;9.43;;;5.00;;
10009;SDS011;5044;48.652;9.250;2023-01-01T04:13:10;7.22;;;4.22;;
10009;SDS011;5044;48.652;9.250;2023-01-01T04:15:41;7.07;;;4.45;;
10009;SDS011;5044;48.652;9.250;2023-01-01T04:18:11;9.52;;;4.88;;
10009;SDS011;5044;48.652;9.250;2023-01-01T04:20:43;8.68;;;4.50;;
10009;SDS011;5044;48.652;9.250;2023-01-01T04:23:13;7.68;;;4.32;;
10009;SDS011;5044;48.652;9.250;2023-01-01T04:25:43;5.88;;;3.42;;
10009;SDS011;5044;48.652;9.250;2023-01-01T04:28:11;6.20;;;3.35;;
10009;SDS011;5044;48.652;9.250;2023-01-01T04:30:40;10.52;;;4.35;;
10009;SDS011;5044;48.652;9.250;2023-01-01T04:33:11;6.10;;;4.35;;
10009;SDS011;5044;48.652;9.250;2023-01-01T04:38:26;7.60;;;4.35;;
10009;SDS011;5044;48.652;9.250;2023-01-01T04:41:07;5.03;;;3.00;;
10009;SDS011;5044;48.652;9.250;2023-01-01T04:43:36;7.03;;;4.18;;
10009;SDS011;5044;48.652;9.250;2023-01-01T04:46:05;7.22;;;3.58;;
10009;SDS011;5044;48.652;9.250;2023-01-01T04:48:41;8.13;;;3.42;;
10009;SDS011;5044;48.652;9.250;2023-01-01T04:51:09;10.75;;;3.58;;
10009;SDS011;5044;48.652;9.250;2023-01-01T04:53:43;6.40;;;4.07;;
10009;SDS011;5044;48.652;9.250;2023-01-01T04:56:19;5.00;;;3.53;;
10009;SDS011;5044;48.652;9.250;2023-01-01T04:58:49;5.82;;;3.22;;
10009;SDS011;5044;48.652;9.250;2023-01-01T05:01:22;5.97;;;3.60;;
10009;SDS011;5044;48.652;9.250;2023-01-01T05:03:57;7.95;;;3.72;;
10009;SDS011;5044;48.652;9.250;2023-01-01T05:06:25;5.10;;;3.55;;
10009;SDS011;5044;48.652;9.250;2023-01-01T05:08:54;6.32;;;3.85;;
10009;SDS011;5044;48.652;9.250;2023-01-01T05:11:24;8.68;;;3.95;;
10009;SDS011;5044;48.652;9.250;2023-01-01T05:13:55;5.65;;;3.80;;
10009;SDS011;5044;48.652;9.250;2023-01-01T05:16:28;5.40;;;3.83;;
10009;SDS011;5044;48.652;9.250;2023-01-01T05:19:05;8.88;;;3.85;;
10009;SDS011;5044;48.652;9.250;2023-01-01T05:21:36;7.13;;;3.35;;
10009;SDS011;5044;48.652;9.250;2023-01-01T05:24:18;6.82;;;3.60;;
10009;SDS011;5044;48.652;9.250;2023-01-01T05:26:59;7.28;;;4.07;;
10009;SDS011;5044;48.652;9.250;2023-01-01T05:29:30;7.50;;;3.53;;
10009;SDS011;5044;48.652;9.250;2023-01-01T05:32:02;5.85;;;3.60;;
10009;SDS011;5044;48.652;9.250;2023-01-01T05:34:34;4.90;;;3.67;;
10009;SDS011;5044;48.652;9.250;2023-01-01T05:37:02;5.78;;;3.65;;
10009;SDS011;5044;48.652;9.250;2023-01-01T05:39:35;5.15;;;3.67;;
10009;SDS011;5044;48.652;9.250;2023-01-01T05:42:05;5.88;;;3.15;;
10009;SDS011;5044;48.652;9.250;2023-01-01T05:44:36;5.43;;;3.33;;
10009;SDS011;5044;48.652;9.250;2023-01-01T05:47:14;6.20;;;3.40;;
10009;SDS011;5044;48.652;9.250;2023-01-01T05:49:58;5.97;;;3.55;;
10009;SDS011;5044;48.652;9.250;2023-01-01T05:52:26;6.20;;;4.13;;
10009;SDS011;5044;48.652;9.250;2023-01-01T05:54:53;7.15;;;3.90;;
10009;SDS011;5044;48.652;9.250;2023-01-01T05:57:27;6.82;;;4.00;;
10009;SDS011;5044;48.652;9.250;2023-01-01T05:59:57;6.30;;;3.47;;
10009;SDS011;5044;48.652;9.250;2023-01-01T06:02:33;5.68;;;3.65;;
10009;SDS011;5044;48.652;9.250;2023-01-01T06:05:07;5.40;;;4.10;;
10009;SDS011;5044;48.652;9.250;2023-01-01T06:07:39;4.53;;;2.72;;
10009;SDS011;5044;48.652;9.250;2023-01-01T06:12:40;6.13;;;2.90;;
10009;SDS011;5044;48.652;9.250;2023-01-01T06:15:22;5.53;;;4.15;;
10009;SDS011;5044;48.652;9.250;2023-01-01T06:17:51;8.55;;;3.70;;
10009;SDS011;5044;48.652;9.250;2023-01-01T06:20:27;7.82;;;3.80;;
10009;SDS011;5044;48.652;9.250;2023-01-01T06:22:57;5.65;;;3.40;;
10009;SDS011;5044;48.652;9.250;2023-01-01T06:25:29;6.40;;;3.60;;
10009;SDS011;5044;48.652;9.250;2023-01-01T06:27:59;6.50;;;3.05;;
10009;SDS011;5044;48.652;9.250;2023-01-01T06:30:28;5.03;;;2.97;;
10009;SDS011;5044;48.652;9.250;2023-01-01T06:32:58;4.43;;;2.97;;
10009;SDS011;5044;48.652;9.250;2023-01-01T06:35:27;4.88;;;3.53;;
10009;SDS011;5044;48.652;9.250;2023-01-01T06:37:54;11.63;;;3.40;;
10009;SDS011;5044;48.652;9.250;2023-01-01T06:40:30;6.68;;;3.30;;
10009;SDS011;5044;48.652;9.250;2023-01-01T06:43:03;5.50;;;3.17;;
10009;SDS011;5044;48.652;9.250;2023-01-01T06:48:03;5.88;;;3.17;;
10009;SDS011;5044;48.652;9.250;2023-01-01T06:50:34;4.88;;;2.45;;
10009;SDS011;5044;48.652;9.250;2023-01-01T06:53:04;5.30;;;2.92;;
10009;SDS011;5044;48.652;9.250;2023-01-01T06:55:31;4.60;;;2.83;;
10009;SDS011;5044;48.652;9.250;2023-01-01T06:58:02;5.57;;;3.00;;
10009;SDS011;5044;48.652;9.250;2023-01-01T07:00:33;3.53;;;2.55;;
10009;SDS011;5044;48.652;9.250;2023-01-01T07:03:02;4.97;;;2.95;;
10009;SDS011;5044;48.652;9.250;2023-01-01T07:05:29;5.32;;;2.30;;
10009;SDS011;5044;48.652;9.250;2023-01-01T07:08:09;4.47;;;2.80;;
10009;SDS011;5044;48.652;9.250;2023-01-01T07:10:38;4.55;;;2.80;;
10009;SDS011;5044;48.652;9.250;2023-01-01T07:13:12;3.92;;;2.47;;
10009;SDS011;5044;48.652;9.250;2023-01-01T07:15:39;4.47;;;2.58;;
10009;SDS011;5044;48.652;9.250;2023-01-01T07:18:18;5.07;;;2.75;;
10009;SDS011;5044;48.652;9.250;2023-01-01T07:20:54;4.75;;;2.55;;
10009;SDS011;5044;48.652;9.250;2023-01-01T07:23:38;5.07;;;3.42;;
10009;SDS011;5044;48.652;9.250;2023-01-01T07:28:43;6.30;;;3.40;;
10009;SDS011;5044;48.652;9.250;2023-01-01T07:31:11;4.55;;;2.65;;
10009;SDS011;5044;48.652;9.250;2023-01-01T07:33:38;5.22;;;2.85;;
10009;SDS011;5044;48.652;9.250;2023-01-01T07:36:10;6.25;;;3.58;;
10009;SDS011;5044;48.652;9.250;2023-01-01T07:38:41;6.60;;;3.00;;
10009;SDS011;5044;48.652;9.250;2023-01-01T07:41:20;4.07;;;2.53;;
10009;SDS011;5044;48.652;9.250;2023-01-01T07:43:52;4.95;;;2.95;;
10009;SDS011;5044;48.652;9.250;2023-01-01T07:46:25;4.53;;;2.90;;
10009;SDS011;5044;48.652;9.250;2023-01-01T07:48:59;4.80;;;2.93;;
10009;SDS011;5044;48.652;9.250;2023-01-01T07:51:33;5.97;;;2.65;;
10009;SDS011;5044;48.652;9.250;2023-01-01T07:54:34;5.95;;;3.30;;
10009;SDS011;5044;48.652;9.250;2023-01-01T07:57:15;5.00;;;2.95;;
10009;SDS011;5044;48.652;9.250;2023-01-01T07:59:45;6.78;;;2.50;;
10009;SDS011;5044;48.652;9.250;2023-01-01T08:02:15;5.85;;;3.15;;
10009;SDS011;5044;48.652;9.250;2023-01-01T08:04:48;7.82;;;2.83;;
10009;SDS011;5044;48.652;9.250;2023-01-01T08:07:21;5.05;;;2.42;;
10009;SDS011;5044;48.652;9.250;2023-01-01T08:09:53;5.25;;;3.28;;
10009;SDS011;5044;48.652;9.250;2023-01-01T08:12:31;4.35;;;2.20;;
10009;SDS011;5044;48.652;9.250;2023-01-01T08:15:03;5.07;;;3.00;;
10009;SDS011;5044;48.652;9.250;2023-01-01T08:17:31;4.95;;;2.50;;
10009;SDS011;5044;48.652;9.250;2023-01-01T08:20:03;4.80;;;2.78;;
10009;SDS011;5044;48.652;9.250;2023-01-01T08:22:35;6.53;;;2.78;;
10009;SDS011;5044;48.652;9.250;2023-01-01T08:25:05;4.30;;;2.33;;
10009;SDS011;5044;48.652;9.250;2023-01-01T08:27:35;4.28;;;2.58;;
10009;SDS011;5044;48.652;9.250;2023-01-01T08:30:07;3.35;;;2.25;;
10009;SDS011;5044;48.652;9.250;2023-01-01T08:32:47;4.95;;;2.63;;
10009;SDS011;5044;48.652;9.250;2023-01-01T08:35:18;3.33;;;2.30;;
10009;SDS011;5044;48.652;9.250;2023-01-01T08:37:49;3.83;;;2.22;;
10009;SDS011;5044;48.652;9.250;2023-01-01T08:40:19;4.72;;;2.40;;
10009;SDS011;5044;48.652;9.250;2023-01-01T08:42:53;4.43;;;2.10;;
10009;SDS011;5044;48.652;9.250;2023-01-01T08:45:23;4.47;;;2.45;;
10009;SDS011;5044;48.652;9.250;2023-01-01T08:47:55;6.45;;;2.40;;
10009;SDS011;5044;48.652;9.250;2023-01-01T08:50:24;3.95;;;2.40;;
10009;SDS011;5044;48.652;9.250;2023-01-01T08:52:56;5.80;;;2.83;;
10009;SDS011;5044;48.652;9.250;2023-01-01T08:55:38;6.97;;;3.13;;
10009;SDS011;5044;48.652;9.250;2023-01-01T08:58:08;4.45;;;2.40;;
10009;SDS011;5044;48.652;9.250;2023-01-01T09:00:36;4.88;;;2.15;;
10009;SDS011;5044;48.652;9.250;2023-01-01T09:03:04;4.55;;;2.55;;
10009;SDS011;5044;48.652;9.250;2023-01-01T09:05:35;3.70;;;2.58;;
10009;SDS011;5044;48.652;9.250;2023-01-01T09:08:08;3.50;;;2.17;;
10009;SDS011;5044;48.652;9.250;2023-01-01T09:10:41;5.15;;;2.17;;
10009;SDS011;5044;48.652;9.250;2023-01-01T09:13:16;3.40;;;2.10;;
10009;SDS011;5044;48.652;9.250;2023-01-01T09:16:02;4.47;;;2.60;;
10009;SDS011;5044;48.652;9.250;2023-01-01T09:18:32;5.57;;;2.67;;
10009;SDS011;5044;48.652;9.250;2023-01-01T09:21:14;4.40;;;2.28;;
10009;SDS011;5044;48.652;9.250;2023-01-01T09:23:48;5.40;;;3.03;;
10009;SDS011;5044;48.652;9.250;2023-01-01T09:26:44;4.95;;;3.17;;
10009;SDS011;5044;48.652;9.250;2023-01-01T09:29:18;7.38;;;3.25;;
10009;SDS011;5044;48.652;9.250;2023-01-01T09:31:48;4.32;;;2.55;;
10009;SDS011;5044;48.652;9.250;2023-01-01T09:34:31;5.68;;;2.47;;
10009;SDS011;5044;48.652;9.250;2023-01-01T09:37:14;5.97;;;2.70;;
10009;SDS011;5044;48.652;9.250;2023-01-01T09:40:00;6.65;;;2.75;;
10009;SDS011;5044;48.652;9.250;2023-01-01T09:42:34;7.20;;;3.15;;
10009;SDS011;5044;48.652;9.250;2023-01-01T09:45:20;6.45;;;2.78;;
10009;SDS011;5044;48.652;9.250;2023-01-01T09:47:55;5.63;;;2.88;;
10009;SDS011;5044;48.652;9.250;2023-01-01T09:50:37;4.35;;;2.70;;
10009;SDS011;5044;48.652;9.250;2023-01-01T09:53:09;4.18;;;2.30;;
10009;SDS011;5044;48.652;9.250;2023-01-01T09:55:43;4.45;;;2.60;;
10009;SDS011;5044;48.652;9.250;2023-01-01T09:58:16;7.32;;;3.10;;
10009;SDS011;5044;48.652;9.250;2023-01-01T10:00:49;6.13;;;2.97;;
10009;SDS011;5044;48.652;9.250;2023-01-01T10:06:12;5.00;;;2.58;;
10009;SDS011;5044;48.652;9.250;2023-01-01T10:08:53;4.13;;;2.40;;
10009;SDS011;5044;48.652;9.250;2023-01-01T10:11:38;3.55;;;2.20;;
10009;SDS011;5044;48.652;9.250;2023-01-01T10:14:17;6.93;;;3.45;;
10009;SDS011;5044;48.652;9.250;2023-01-01T10:16:53;4.47;;;2.22;;
10009;SDS011;5044;48.652;9.250;2023-01-01T10:19:25;5.65;;;3.13;;
10009;SDS011;5044;48.652;9.250;2023-01-01T10:22:01;3.15;;;2.03;;
10009;SDS011;5044;48.652;9.250;2023-01-01T10:24:37;4.35;;;2.70;;
10009;SDS011;5044;48.652;9.250;2023-01-01T10:27:19;4.15;;;2.45;;
10009;SDS011;5044;48.652;9.250;2023-01-01T10:30:00;3.33;;;2.55;;
10009;SDS011;5044;48.652;9.250;2023-01-01T10:32:38;3.45;;;2.72;;
10009;SDS011;5044;48.652;9.250;2023-01-01T10:35:11;10.55;;;2.15;;
10009;SDS011;5044;48.652;9.250;2023-01-01T10:37:43;4.97;;;2.58;;
10009;SDS011;5044;48.652;9.250;2023-01-01T10:40:17;6.10;;;1.77;;
10009;SDS011;5044;48.652;9.250;2023-01-01T10:43:05;3.97;;;2.17;;
10009;SDS011;5044;48.652;9.250;2023-01-01T10:45:48;4.65;;;2.28;;
10009;SDS011;5044;48.652;9.250;2023-01-01T10:48:21;9.85;;;2.50;;
10009;SDS011;5044;48.652;9.250;2023-01-01T10:51:13;4.35;;;1.95;;
10009;SDS011;5044;48.652;9.250;2023-01-01T10:53:49;4.25;;;2.00;;
10009;SDS011;5044;48.652;9.250;2023-01-01T10:56:19;7.43;;;2.05;;
10009;SDS011;5044;48.652;9.250;2023-01-01T10:58:51;7.70;;;1.83;;
10009;SDS011;5044;48.652;9.250;2023-01-01T11:01:21;3.72;;;2.25;;
10009;SDS011;5044;48.652;9.250;2023-01-01T11:03:56;5.95;;;1.90;;
10009;SDS011;5044;48.652;9.250;2023-01-01T11:06:25;5.97;;;2.50;;
10009;SDS011;5044;48.652;9.250;2023-01-01T11:08:53;4.53;;;1.83;;
10009;SDS011;5044;48.652;9.250;2023-01-01T11:11:25;8.00;;;2.90;;
10009;SDS011;5044;48.652;9.250;2023-01-01T11:13:56;3.00;;;1.92;;
10009;SDS011;5044;48.652;9.250;2023-01-01T11:16:25;2.72;;;1.63;;
10009;SDS011;5044;48.652;9.250;2023-01-01T11:18:59;5.50;;;2.42;;
10009;SDS011;5044;48.652;9.250;2023-01-01T11:21:28;5.15;;;2.10;;
10009;SDS011;5044;48.652;9.250;2023-01-01T11:24:16;6.20;;;2.50;;
10009;SDS011;5044;48.652;9.250;2023-01-01T11:26:46;3.78;;;2.22;;
10009;SDS011;5044;48.652;9.250;2023-01-01T11:29:23;3.38;;;2.20;;
10009;SDS011;5044;48.652;9.250;2023-01-01T11:31:52;5.75;;;2.10;;
10009;SDS011;5044;48.652;9.250;2023-01-01T11:34:25;6.32;;;1.67;;
10009;SDS011;5044;48.652;9.250;2023-01-01T11:37:05;2.80;;;1.80;;
10009;SDS011;5044;48.652;9.250;2023-01-01T11:39:35;3.20;;;2.10;;
10009;SDS011;5044;48.652;9.250;2023-01-01T11:42:06;3.38;;;1.65;;
10009;SDS011;5044;48.652;9.250;2023-01-01T11:44:36;5.10;;;2.47;;
10009;SDS011;5044;48.652;9.250;2023-01-01T11:47:06;3.15;;;1.60;;
10009;SDS011;5044;48.652;9.250;2023-01-01T11:49:45;4.82;;;1.45;;
10009;SDS011;5044;48.652;9.250;2023-01-01T11:52:25;3.80;;;2.03;;
10009;SDS011;5044;48.652;9.250;2023-01-01T11:54:58;5.72;;;1.80;;
10009;SDS011;5044;48.652;9.250;2023-01-01T11:57:28;4.88;;;1.80;;
10009;SDS011;5044;48.652;9.250;2023-01-01T11:59:59;7.85;;;1.90;;
10009;SDS011;5044;48.652;9.250;2023-01-01T12:02:29;2.78;;;1.65;;
10009;SDS011;5044;48.652;9.250;2023-01-01T12:05:02;5.07;;;1.90;;
10009;SDS011;5044;48.652;9.250;2023-01-01T12:07:35;3.08;;;1.58;;
10009;SDS011;5044;48.652;9.250;2023-01-01T12:10:08;2.30;;;1.60;;
10009;SDS011;5044;48.652;9.250;2023-01-01T12:12:45;4.88;;;1.80;;
10009;SDS011;5044;48.652;9.250;2023-01-01T12:15:17;6.18;;;2.33;;
10009;SDS011;5044;48.652;9.250;2023-01-01T12:17:50;6.25;;;2.75;;
10009;SDS011;5044;48.652;9.250;2023-01-01T12:20:27;8.50;;;2.90;;
10009;SDS011;5044;48.652;9.250;2023-01-01T12:22:57;8.80;;;3.22;;
10009;SDS011;5044;48.652;9.250;2023-01-01T12:25:27;5.10;;;2.38;;
10009;SDS011;5044;48.652;9.250;2023-01-01T12:28:01;8.00;;;1.98;;
10009;SDS011;5044;48.652;9.250;2023-01-01T12:30:37;5.88;;;1.75;;
10009;SDS011;5044;48.652;9.250;2023-01-01T12:33:17;7.80;;;2.28;;
10009;SDS011;5044;48.652;9.250;2023-01-01T12:36:02;7.40;;;2.10;;
10009;SDS011;5044;48.652;9.250;2023-01-01T12:38:55;4.65;;;1.88;;
10009;SDS011;5044;48.652;9.250;2023-01-01T12:41:44;4.72;;;1.40;;
10009;SDS011;5044;48.652;9.250;2023-01-01T12:44:23;9.57;;;1.75;;
10009;SDS011;5044;48.652;9.250;2023-01-01T12:47:00;5.40;;;1.80;;
10009;SDS011;5044;48.652;9.250;2023-01-01T12:49:45;3.63;;;2.47;;
10009;SDS011;5044;48.652;9.250;2023-01-01T12:52:28;4.10;;;1.85;;
10009;SDS011;5044;48.652;9.250;2023-01-01T12:55:21;6.65;;;2.10;;
10009;SDS011;5044;48.652;9.250;2023-01-01T12:58:08;5.30;;;1.50;;
10009;SDS011;5044;48.652;9.250;2023-01-01T13:00:40;3.80;;;2.10;;
10009;SDS011;5044;48.652;9.250;2023-01-01T13:03:16;3.67;;;1.60;;
10009;SDS011;5044;48.652;9.250;2023-01-01T13:05:47;7.65;;;2.38;;
10009;SDS011;5044;48.652;9.250;2023-01-01T13:08:16;3.10;;;1.65;;
10009;SDS011;5044;48.652;9.250;2023-01-01T13:10:43;5.63;;;2.10;;
10009;SDS011;5044;48.652;9.250;2023-01-01T13:13:12;5.43;;;1.92;;
10009;SDS011;5044;48.652;9.250;2023-01-01T13:15:44;4.43;;;1.75;;
10009;SDS011;5044;48.652;9.250;2023-01-01T13:18:20;3.00;;;1.92;;
10009;SDS011;5044;48.652;9.250;2023-01-01T13:21:05;4.32;;;1.88;;
10009;SDS011;5044;48.652;9.250;2023-01-01T13:23:46;7.80;;;2.13;;
10009;SDS011;5044;48.652;9.250;2023-01-01T13:26:33;8.85;;;2.05;;
10009;SDS011;5044;48.652;9.250;2023-01-01T13:32:09;3.80;;;1.90;;
10009;SDS011;5044;48.652;9.250;2023-01-01T13:34:57;7.20;;;1.98;;
10009;SDS011;5044;48.652;9.250;2023-01-01T13:37:26;2.55;;;1.70;;
10009;SDS011;5044;48.652;9.250;2023-01-01T13:43:20;3.95;;;2.20;;
10009;SDS011;5044;48.652;9.250;2023-01-01T13:45:52;5.18;;;1.40;;
10009;SDS011;5044;48.652;9.250;2023-01-01T13:51:19;5.05;;;1.55;;
10009;SDS011;5044;48.652;9.250;2023-01-01T13:54:09;5.35;;;1.48;;
10009;SDS011;5044;48.652;9.250;2023-01-01T13:56:51;5.60;;;2.20;;
10009;SDS011;5044;48.652;9.250;2023-01-01T13:59:38;4.90;;;2.15;;
10009;SDS011;5044;48.652;9.250;2023-01-01T14:02:21;4.72;;;2.03;;
10009;SDS011;5044;48.652;9.250;2023-01-01T14:04:52;4.78;;;2.33;;
10009;SDS011;5044;48.652;9.250;2023-01-01T14:10:15;5.75;;;2.67;;
10009;SDS011;5044;48.652;9.250;2023-01-01T14:12:44;4.45;;;2.38;;
10009;SDS011;5044;48.652;9.250;2023-01-01T14:15:15;6.28;;;2.65;;
10009;SDS011;5044;48.652;9.250;2023-01-01T14:17:49;8.50;;;2.65;;
10009;SDS011;5044;48.652;9.250;2023-01-01T14:20:18;4.85;;;2.13;;
10009;SDS011;5044;48.652;9.250;2023-01-01T14:22:49;4.75;;;2.50;;
10009;SDS011;5044;48.652;9.250;2023-01-01T14:25:19;5.25;;;1.95;;
10009;SDS011;5044;48.652;9.250;2023-01-01T14:27:52;6.35;;;1.95;;
10009;SDS011;5044;48.652;9.250;2023-01-01T14:30:19;4.82;;;2.20;;
10009;SDS011;5044;48.652;9.250;2023-01-01T14:32:54;5.20;;;2.67;;
10009;SDS011;5044;48.652;9.250;2023-01-01T14:35:21;5.75;;;3.60;;
10009;SDS011;5044;48.652;9.250;2023-01-01T14:37:51;11.98;;;3.53;;
10009;SDS011;5044;48.652;9.250;2023-01-01T14:40:19;8.68;;;2.60;;
10009;SDS011;5044;48.652;9.250;2023-01-01T14:42:53;7.65;;;4.15;;
10009;SDS011;5044;48.652;9.250;2023-01-01T14:45:23;5.35;;;2.88;;
10009;SDS011;5044;48.652;9.250;2023-01-01T14:47:52;6.57;;;3.00;;
10009;SDS011;5044;48.652;9.250;2023-01-01T14:50:23;3.83;;;2.70;;
10009;SDS011;5044;48.652;9.250;2023-01-01T14:52:55;5.88;;;3.45;;
10009;SDS011;5044;48.652;9.250;2023-01-01T14:55:30;4.78;;;2.83;;
10009;SDS011;5044;48.652;9.250;2023-01-01T14:58:03;5.97;;;2.30;;
10009;SDS011;5044;48.652;9.250;2023-01-01T15:00:31;7.57;;;2.92;;
10009;SDS011;5044;48.652;9.250;2023-01-01T15:03:06;4.60;;;1.73;;
10009;SDS011;5044;48.652;9.250;2023-01-01T15:05:37;8.20;;;2.80;;
10009;SDS011;5044;48.652;9.250;2023-01-01T15:08:15;8.05;;;2.28;;
10009;SDS011;5044;48.652;9.250;2023-01-01T15:10:45;4.55;;;2.45;;
10009;SDS011;5044;48.652;9.250;2023-01-01T15:13:15;3.95;;;1.90;;
10009;SDS011;5044;48.652;9.250;2023-01-01T15:15:44;6.82;;;2.28;;
10009;SDS011;5044;48.652;9.250;2023-01-01T15:21:01;3.30;;;2.30;;
10009;SDS011;5044;48.652;9.250;2023-01-01T15:23:33;4.70;;;2.28;;
10009;SDS011;5044;48.652;9.250;2023-01-01T15:26:05;5.88;;;2.75;;
10009;SDS011;5044;48.652;9.250;2023-01-01T15:31:00;4.22;;;2.53;;
10009;SDS011;5044;48.652;9.250;2023-01-01T15:33:28;9.15;;;2.90;;
10009;SDS011;5044;48.652;9.250;2023-01-01T15:35:55;5.47;;;2.28;;
10009;SDS011;5044;48.652;9.250;2023-01-01T15:38:27;3.65;;;2.42;;
10009;SDS011;5044;48.652;9.250;2023-01-01T15:40:59;6.32;;;2.30;;
10009;SDS011;5044;48.652;9.250;2023-01-01T15:43:46;3.85;;;2.13;;
10009;SDS011;5044;48.652;9.250;2023-01-01T15:46:16;6.00;;;2.42;;
10009;SDS011;5044;48.652;9.250;2023-01-01T15:48:46;4.35;;;1.90;;
10009;SDS011;5044;48.652;9.250;2023-01-01T15:51:15;3.95;;;1.88;;
10009;SDS011;5044;48.652;9.250;2023-01-01T15:53:49;5.63;;;2.70;;
10009;SDS011;5044;48.652;9.250;2023-01-01T15:56:37;4.32;;;2.65;;
10009;SDS011;5044;48.652;9.250;2023-01-01T15:59:06;6.80;;;2.83;;
10009;SDS011;5044;48.652;9.250;2023-01-01T16:01:46;5.32;;;2.55;;
10009;SDS011;5044;48.652;9.250;2023-01-01T16:04:16;5.03;;;2.55;;
10009;SDS011;5044;48.652;9.250;2023-01-01T16:06:50;6.38;;;2.88;;
10009;SDS011;5044;48.652;9.250;2023-01-01T16:09:20;7.15;;;3.38;;